Portada
METAR-TAF:

METAR-TAF

Aeropuertos :

Bandar Lengeh, Irán

latitud: 26-35N, longitud: 054-50E, altitud: 14 m

Observación

El informe se hizo hace 56 minutos, a las 06:00 UTC
Viento 6 kt del noreste
Temperatura 23°C
Humedad 69%
Presión 1021 hPa
Visibilidad 10 km o más
Escasas nubes a una altura de 3000 ft

METAR: OIBL 130600Z 05006KT 9999 FEW030 23/17 Q1021

Hora: 10:26 (06:56 UTC)


TAF: falta

Observaciones y pronósticos meteorológicos de más de 4000 aeropuertos (mensajes METAR y TAF).

Los puntos amarillos y rojos representan las estaciones disponibles.

Ponga el ratón en el punto deseado para ver el nombre de la estación.

Haga clic para ver las observaciones y los pronósticos meteorológicos.

Para cambiar el mapa : haga clic en los botones verdes con una cruz de color negro para hacer un zoom, en el botón verde con un guión para alejar o en las flechas verdes para mapas adyacentes.


METAR-TAF: